Time;durP1;ratioP1;P1;durP2;ratioP2;P2;SDS_P1;SDS_P2;PMS_P1;PMS_P2;Temp;Humidity;BMP_temperature;BMP_pressure;BME280_temperature;BME280_humidity;BME280_pressure;Samples;Min_cycle;Max_cycle;Signal;HPM_P1;HPM_P2
2023/06/18 00:02:04;;;;;;;38.60;28.63;;;17.30;99.90;;;;;;5089805;28;20850;-74
2023/06/18 00:04:31;;;;;;;37.13;28.07;;;17.20;99.90;;;;;;5089214;28;20433;-74
2023/06/18 00:06:57;;;;;;;40.28;29.00;;;17.20;99.90;;;;;;5093023;28;20464;-74
2023/06/18 00:09:23;;;;;;;37.58;27.17;;;17.30;99.90;;;;;;5089153;28;20403;-74
2023/06/18 00:11:49;;;;;;;37.30;27.43;;;17.20;99.90;;;;;;5089579;28;20463;-74
2023/06/18 00:14:16;;;;;;;37.38;28.40;;;17.20;99.90;;;;;;5091214;28;20455;-74
2023/06/18 00:16:41;;;;;;;38.83;28.30;;;17.30;99.90;;;;;;5081842;28;20448;-74
2023/06/18 00:19:07;;;;;;;40.00;29.03;;;17.20;99.90;;;;;;5083251;28;20453;-74
2023/06/18 00:21:32;;;;;;;41.90;29.37;;;17.20;99.90;;;;;;5088850;28;20403;-74
2023/06/18 00:23:58;;;;;;;41.53;29.05;;;17.20;99.90;;;;;;5088301;28;20493;-74
2023/06/18 00:26:25;;;;;;;42.03;29.83;;;17.20;99.90;;;;;;5091122;28;20479;-74
2023/06/18 00:28:51;;;;;;;39.78;29.35;;;17.20;99.90;;;;;;5091171;28;20915;-74
2023/06/18 00:31:17;;;;;;;44.30;29.77;;;17.20;99.90;;;;;;5094107;28;20460;-74
2023/06/18 00:33:46;;;;;;;42.58;30.15;;;17.10;99.90;;;;;;5092189;28;20433;-74
2023/06/18 00:36:12;;;;;;;46.00;29.23;;;17.10;99.90;;;;;;5088277;28;20429;-74
2023/06/18 00:38:45;;;;;;;43.00;30.65;;;17.00;99.90;;;;;;5089407;28;20402;-74
2023/06/18 00:41:11;;;;;;;43.35;30.35;;;17.00;99.90;;;;;;5085951;28;20426;-74
2023/06/18 00:43:37;;;;;;;42.10;29.70;;;17.00;99.90;;;;;;5088512;28;20466;-74
2023/06/18 00:46:04;;;;;;;41.67;30.13;;;17.00;99.90;;;;;;5088653;28;20526;-74
2023/06/18 00:48:32;;;;;;;41.92;29.70;;;17.00;99.90;;;;;;5090222;28;20405;-74
2023/06/18 00:51:01;;;;;;;40.15;29.38;;;17.00;99.90;;;;;;5089626;28;20417;-74
2023/06/18 00:53:28;;;;;;;55.60;31.08;;;17.10;99.90;;;;;;5090467;28;20907;-74
2023/06/18 00:55:53;;;;;;;48.90;32.28;;;17.10;99.90;;;;;;5087314;28;20413;-74
2023/06/18 00:58:23;;;;;;;51.42;33.70;;;17.00;99.90;;;;;;5088910;28;20520;-74
2023/06/18 01:00:50;;;;;;;50.70;33.23;;;17.00;99.90;;;;;;5089715;28;21077;-74
2023/06/18 01:03:17;;;;;;;55.22;34.28;;;17.00;99.90;;;;;;5087303;28;20444;-74
2023/06/18 01:05:45;;;;;;;60.38;35.50;;;17.00;99.90;;;;;;5089008;28;20421;-74
2023/06/18 01:08:12;;;;;;;56.35;34.45;;;17.00;99.90;;;;;;5090158;28;20416;-74
2023/06/18 01:10:40;;;;;;;57.35;35.75;;;16.90;99.90;;;;;;5086987;28;20410;-74
2023/06/18 01:13:10;;;;;;;53.97;34.93;;;17.00;99.90;;;;;;5071651;28;20414;-74
2023/06/18 01:15:37;;;;;;;61.85;35.97;;;17.00;99.90;;;;;;5087295;28;20497;-74
2023/06/18 01:18:06;;;;;;;60.67;36.38;;;17.00;99.90;;;;;;5088139;28;20410;-74
2023/06/18 01:20:40;;;;;;;66.32;37.67;;;17.00;99.90;;;;;;5090060;28;20933;-74
2023/06/18 01:23:14;;;;;;;58.33;36.67;;;17.00;99.90;;;;;;5086998;28;20421;-74
2023/06/18 01:25:43;;;;;;;67.67;36.30;;;17.00;99.90;;;;;;5088282;28;20434;-74
2023/06/18 01:28:10;;;;;;;67.63;37.60;;;17.00;99.90;;;;;;5088887;28;20406;-74
2023/06/18 01:30:36;;;;;;;66.20;37.53;;;17.00;99.90;;;;;;5088986;28;20397;-74
2023/06/18 01:33:03;;;;;;;63.83;36.92;;;17.00;99.90;;;;;;5089567;28;20402;-74
2023/06/18 01:35:29;;;;;;;62.88;37.63;;;17.00;99.90;;;;;;5073293;28;20409;-74
2023/06/18 01:38:28;;;;;;;61.17;36.37;;;17.00;99.90;;;;;;5075956;28;20428;-74
2023/06/18 01:41:15;;;;;;;64.88;36.50;;;17.10;99.90;;;;;;5093635;28;20453;-74
2023/06/18 01:44:03;;;;;;;65.43;37.42;;;17.10;99.90;;;;;;5091958;28;20449;-74
2023/06/18 01:46:29;;;;;;;65.03;37.75;;;17.10;99.90;;;;;;5090733;28;20422;-74
2023/06/18 01:48:57;;;;;;;68.07;39.03;;;17.10;99.90;;;;;;5093480;28;20407;-74
2023/06/18 01:51:25;;;;;;;66.55;37.20;;;17.10;99.90;;;;;;5090755;28;20414;-74
2023/06/18 01:53:53;;;;;;;66.35;38.67;;;17.10;99.90;;;;;;5093661;28;20419;-74
2023/06/18 01:56:21;;;;;;;67.10;37.83;;;17.10;99.90;;;;;;5090421;28;20402;-74
2023/06/18 01:58:46;;;;;;;65.03;37.53;;;17.10;99.90;;;;;;5093034;28;20442;-74
2023/06/18 02:01:12;;;;;;;65.82;36.20;;;17.10;99.90;;;;;;5090643;28;20406;-74
2023/06/18 02:03:39;;;;;;;61.40;36.45;;;17.10;99.90;;;;;;5094188;28;20427;-74
2023/06/18 02:06:06;;;;;;;57.60;34.25;;;17.00;99.90;;;;;;5089878;28;20785;-74
2023/06/18 02:08:32;;;;;;;56.08;34.03;;;17.00;99.90;;;;;;5093085;28;20411;-74
2023/06/18 02:10:59;;;;;;;55.73;34.07;;;17.00;99.90;;;;;;5090925;28;20484;-74
2023/06/18 02:13:25;;;;;;;56.15;33.88;;;16.90;99.90;;;;;;5094172;28;20490;-74
2023/06/18 02:15:50;;;;;;;51.00;32.83;;;17.00;99.90;;;;;;5092184;28;20446;-74
2023/06/18 02:18:16;;;;;;;50.65;32.53;;;17.00;99.90;;;;;;5090604;28;20434;-74
2023/06/18 02:20:42;;;;;;;52.58;33.10;;;17.00;99.90;;;;;;5091027;28;20542;-74
2023/06/18 02:23:08;;;;;;;51.45;32.97;;;17.00;99.90;;;;;;5095183;28;20412;-74
2023/06/18 02:25:34;;;;;;;55.10;33.85;;;17.00;99.90;;;;;;5086897;28;20517;-74
2023/06/18 02:28:01;;;;;;;49.77;31.13;;;17.10;99.90;;;;;;5090704;28;20501;-74
2023/06/18 02:30:30;;;;;;;51.10;30.65;;;17.10;99.90;;;;;;5089950;28;20445;-74
2023/06/18 02:33:06;;;;;;;49.10;30.23;;;17.10;99.90;;;;;;5094607;28;20476;-74
2023/06/18 02:35:32;;;;;;;52.77;30.33;;;17.10;99.90;;;;;;5091094;28;20447;-74
2023/06/18 02:37:57;;;;;;;48.22;29.95;;;17.00;99.90;;;;;;5093333;28;20398;-74
2023/06/18 02:40:23;;;;;;;46.50;30.20;;;17.00;99.90;;;;;;5089883;28;20756;-74
2023/06/18 02:42:50;;;;;;;57.10;31.10;;;16.90;99.90;;;;;;5092666;28;20967;-74
2023/06/18 02:45:18;;;;;;;108.68;31.45;;;16.90;99.90;;;;;;5089871;28;20475;-74
2023/06/18 02:47:45;;;;;;;59.47;31.90;;;16.90;99.90;;;;;;5095855;28;20410;-74
2023/06/18 02:50:11;;;;;;;60.83;32.83;;;16.80;99.90;;;;;;5095484;28;20911;-74
2023/06/18 02:52:38;;;;;;;58.97;34.37;;;16.70;99.90;;;;;;5097388;28;20938;-74
2023/06/18 02:55:04;;;;;;;57.35;33.30;;;16.70;99.90;;;;;;5089044;28;20465;-74
2023/06/18 02:57:30;;;;;;;52.30;32.22;;;16.70;99.90;;;;;;5094669;28;20914;-74
2023/06/18 02:59:55;;;;;;;52.73;32.13;;;16.80;99.90;;;;;;5093274;28;20413;-74
2023/06/18 03:02:22;;;;;;;64.60;32.20;;;16.80;99.90;;;;;;5076414;28;20408;-74
2023/06/18 03:04:47;;;;;;;66.10;34.33;;;16.70;99.90;;;;;;5068356;28;20463;-74
2023/06/18 03:07:13;;;;;;;62.77;34.10;;;16.70;99.90;;;;;;5092040;28;20404;-73
2023/06/18 03:09:39;;;;;;;71.90;33.67;;;16.80;99.90;;;;;;5091029;28;21123;-74
2023/06/18 03:12:05;;;;;;;58.40;34.28;;;16.80;99.90;;;;;;5086900;28;20412;-74
2023/06/18 03:14:30;;;;;;;57.55;33.72;;;16.70;99.90;;;;;;5084209;28;20397;-74
2023/06/18 03:16:57;;;;;;;52.85;32.33;;;16.80;99.90;;;;;;5091017;28;20418;-74
2023/06/18 03:19:23;;;;;;;48.40;31.02;;;16.80;99.90;;;;;;5089634;28;20437;-74
2023/06/18 03:21:48;;;;;;;48.28;30.88;;;16.80;99.90;;;;;;5091559;28;20436;-74
2023/06/18 03:24:14;;;;;;;49.70;31.17;;;16.80;99.90;;;;;;5091750;28;20426;-74
2023/06/18 03:26:41;;;;;;;50.55;31.27;;;16.70;99.90;;;;;;5092984;28;20413;-74
2023/06/18 03:29:07;;;;;;;43.90;30.27;;;16.70;99.90;;;;;;5072313;28;20420;-74
2023/06/18 03:31:33;;;;;;;45.40;30.30;;;16.70;99.90;;;;;;5091336;28;20984;-74
2023/06/18 03:34:02;;;;;;;50.97;31.77;;;16.70;99.90;;;;;;5091098;28;20481;-74
2023/06/18 03:36:29;;;;;;;51.30;29.95;;;16.70;99.90;;;;;;5089912;28;20398;-74
2023/06/18 03:38:55;;;;;;;43.47;29.67;;;16.80;99.90;;;;;;5089756;28;20448;-73
2023/06/18 03:41:21;;;;;;;43.50;29.67;;;16.70;99.90;;;;;;5089269;28;20919;-74
2023/06/18 03:43:47;;;;;;;37.23;27.27;;;16.70;99.90;;;;;;5090533;28;20420;-74
2023/06/18 03:46:12;;;;;;;39.10;27.88;;;16.70;99.90;;;;;;5090145;28;20509;-74
2023/06/18 03:48:39;;;;;;;40.43;28.03;;;16.70;99.90;;;;;;5090106;28;20432;-73
2023/06/18 03:51:05;;;;;;;41.53;29.48;;;16.70;99.90;;;;;;5090129;28;21003;-74
2023/06/18 03:53:36;;;;;;;45.77;31.60;;;16.70;99.90;;;;;;5090820;28;20485;-74
2023/06/18 03:56:03;;;;;;;43.00;30.25;;;16.80;99.90;;;;;;5072413;28;20437;-74
2023/06/18 03:58:28;;;;;;;39.60;28.90;;;16.80;99.90;;;;;;5089773;28;20405;-74
2023/06/18 04:00:54;;;;;;;38.28;28.70;;;16.80;99.90;;;;;;5091326;28;20408;-74
2023/06/18 04:03:20;;;;;;;35.07;26.07;;;16.80;99.90;;;;;;5090386;28;20436;-74
2023/06/18 04:05:45;;;;;;;31.27;24.40;;;16.90;99.90;;;;;;5090659;28;20514;-74
2023/06/18 04:08:11;;;;;;;30.27;24.07;;;16.90;99.90;;;;;;5093551;28;20851;-74
2023/06/18 04:10:36;;;;;;;29.60;23.43;;;17.00;99.90;;;;;;5091253;28;20413;-74
2023/06/18 04:13:02;;;;;;;31.27;25.63;;;17.00;99.90;;;;;;5091412;28;20768;-73
2023/06/18 04:15:28;;;;;;;34.17;25.50;;;17.00;99.90;;;;;;5090315;28;20459;-73
2023/06/18 04:17:53;;;;;;;31.53;24.70;;;17.00;99.90;;;;;;5090909;28;20417;-73
2023/06/18 04:20:19;;;;;;;32.10;24.83;;;17.10;99.90;;;;;;5090520;28;20410;-74
2023/06/18 04:22:44;;;;;;;32.47;24.97;;;17.00;99.90;;;;;;5090389;28;20468;-74
2023/06/18 04:25:10;;;;;;;33.42;25.10;;;17.00;99.90;;;;;;5073134;28;20464;-74
2023/06/18 04:27:37;;;;;;;35.00;26.43;;;17.00;99.90;;;;;;5090739;28;21087;-73
2023/06/18 04:30:03;;;;;;;35.58;27.30;;;16.90;99.90;;;;;;5091082;28;20479;-73
2023/06/18 04:32:29;;;;;;;33.28;24.92;;;16.90;99.90;;;;;;5091057;28;20485;-73
2023/06/18 04:34:54;;;;;;;30.42;24.90;;;16.90;99.90;;;;;;5090735;28;21038;-73
2023/06/18 04:37:20;;;;;;;29.90;23.90;;;17.00;99.90;;;;;;5089865;28;20394;-73
2023/06/18 04:39:46;;;;;;;28.17;23.10;;;17.00;99.90;;;;;;5089624;28;20417;-73
2023/06/18 04:42:12;;;;;;;24.47;21.00;;;17.10;99.90;;;;;;5089950;28;20986;-73
2023/06/18 04:44:38;;;;;;;28.52;23.33;;;17.10;99.90;;;;;;5089487;28;20433;-74
2023/06/18 04:47:04;;;;;;;29.83;23.57;;;17.10;99.90;;;;;;5088093;28;20764;-73
2023/06/18 04:49:30;;;;;;;27.95;22.42;;;17.00;99.90;;;;;;5088493;28;20417;-73
2023/06/18 04:51:55;;;;;;;26.93;21.77;;;17.00;99.90;;;;;;5087930;28;20402;-73
2023/06/18 04:54:21;;;;;;;27.73;23.08;;;17.00;99.90;;;;;;5089477;28;20862;-73
2023/06/18 04:56:47;;;;;;;25.37;21.63;;;17.00;99.90;;;;;;5089807;28;20406;-74
2023/06/18 04:59:12;;;;;;;24.60;20.97;;;17.10;99.90;;;;;;5072213;28;20397;-73
2023/06/18 05:01:38;;;;;;;25.25;21.33;;;17.20;99.90;;;;;;5089559;28;20413;-73
2023/06/18 05:04:03;;;;;;;25.13;21.20;;;17.20;99.90;;;;;;5071219;28;20398;-73
2023/06/18 05:06:30;;;;;;;24.10;20.58;;;17.20;99.90;;;;;;5089204;28;20487;-73
2023/06/18 05:08:55;;;;;;;25.17;21.23;;;17.20;99.90;;;;;;5087259;28;20412;-74
2023/06/18 05:11:21;;;;;;;24.80;21.80;;;17.30;99.90;;;;;;5088955;28;20406;-74
2023/06/18 05:13:47;;;;;;;23.93;20.40;;;17.30;99.90;;;;;;5088047;28;20405;-73
2023/06/18 05:16:12;;;;;;;23.33;20.40;;;17.40;99.90;;;;;;5088902;28;20406;-73
2023/06/18 05:18:38;;;;;;;23.63;20.73;;;17.50;99.90;;;;;;5090911;28;20489;-74
2023/06/18 05:21:04;;;;;;;24.25;20.00;;;17.50;99.90;;;;;;5091302;28;20483;-73
2023/06/18 05:23:30;;;;;;;22.63;20.00;;;17.50;99.90;;;;;;5087855;28;20416;-74
2023/06/18 05:25:55;;;;;;;21.87;18.90;;;17.60;99.90;;;;;;5088237;28;20525;-73
2023/06/18 05:28:21;;;;;;;20.97;18.40;;;17.60;99.90;;;;;;5088552;28;20919;-73
2023/06/18 05:30:47;;;;;;;19.63;17.52;;;17.60;99.90;;;;;;5087768;28;20410;-73
2023/06/18 05:33:13;;;;;;;21.67;17.80;;;17.60;99.90;;;;;;5087513;28;20409;-73
2023/06/18 05:35:38;;;;;;;21.33;18.33;;;17.70;99.90;;;;;;5088075;28;20390;-73
2023/06/18 05:38:04;;;;;;;19.60;17.43;;;17.70;99.90;;;;;;5086606;28;20763;-74
2023/06/18 05:40:30;;;;;;;20.20;17.67;;;17.70;99.90;;;;;;5089479;28;20461;-73
2023/06/18 05:42:56;;;;;;;19.37;17.27;;;17.80;99.90;;;;;;5089465;28;20501;-74
2023/06/18 05:45:22;;;;;;;20.63;18.27;;;17.80;99.90;;;;;;5092283;28;20937;-73
2023/06/18 05:47:47;;;;;;;21.42;18.58;;;17.80;99.90;;;;;;5090385;28;20437;-73
2023/06/18 05:50:13;;;;;;;20.60;18.40;;;17.80;99.90;;;;;;5090334;28;20407;-73
2023/06/18 05:52:39;;;;;;;24.02;19.77;;;17.80;99.90;;;;;;5088413;28;20430;-74
2023/06/18 05:55:09;;;;;;;23.90;20.17;;;17.80;99.90;;;;;;5090125;28;20897;-74
2023/06/18 05:57:34;;;;;;;24.27;21.15;;;17.80;99.90;;;;;;5088930;28;20412;-74
2023/06/18 06:00:00;;;;;;;23.70;20.00;;;17.80;99.90;;;;;;5073106;28;20408;-73
2023/06/18 06:02:25;;;;;;;25.13;21.43;;;17.90;99.90;;;;;;5088146;28;20419;-73
2023/06/18 06:04:51;;;;;;;26.00;22.02;;;17.90;99.90;;;;;;5068539;28;20482;-74
2023/06/18 06:07:17;;;;;;;26.53;22.47;;;17.90;99.90;;;;;;5069695;28;20767;-73
2023/06/18 06:09:42;;;;;;;24.63;20.65;;;17.90;99.90;;;;;;5086623;28;20452;-73
2023/06/18 06:12:08;;;;;;;27.58;22.70;;;17.90;99.90;;;;;;5086670;28;20959;-73
2023/06/18 06:14:34;;;;;;;27.98;22.73;;;17.90;99.90;;;;;;5086872;28;20402;-73
2023/06/18 06:17:00;;;;;;;27.37;22.77;;;18.00;99.90;;;;;;5088013;28;20409;-73
2023/06/18 06:19:25;;;;;;;27.48;22.13;;;18.00;99.90;;;;;;5090480;28;20745;-73
2023/06/18 06:21:51;;;;;;;30.27;23.80;;;18.00;99.90;;;;;;5087298;28;20421;-73
2023/06/18 06:24:17;;;;;;;28.15;22.77;;;18.10;99.90;;;;;;5087467;28;20786;-74
2023/06/18 06:26:42;;;;;;;24.83;20.95;;;18.20;99.90;;;;;;5085973;28;20414;-73
2023/06/18 06:29:08;;;;;;;25.63;21.20;;;18.30;99.90;;;;;;5086797;28;20417;-73
2023/06/18 06:31:33;;;;;;;27.92;23.52;;;18.30;99.90;;;;;;5086525;28;20401;-74
2023/06/18 06:33:59;;;;;;;26.97;22.40;;;18.50;99.90;;;;;;5087078;28;21192;-73
2023/06/18 06:36:25;;;;;;;29.00;23.90;;;18.50;99.90;;;;;;5087085;28;20401;-73
2023/06/18 06:38:51;;;;;;;26.88;22.52;;;18.60;99.90;;;;;;5087853;28;20397;-74
2023/06/18 06:41:16;;;;;;;27.30;21.60;;;18.70;99.90;;;;;;5069778;28;20458;-74
2023/06/18 06:43:42;;;;;;;27.23;21.75;;;18.70;99.90;;;;;;5087342;28;20441;-74
2023/06/18 06:46:08;;;;;;;30.80;23.07;;;18.80;99.90;;;;;;5086648;28;20433;-73
2023/06/18 06:48:34;;;;;;;26.35;21.85;;;18.80;99.90;;;;;;5087704;28;20428;-73
2023/06/18 06:51:00;;;;;;;24.90;20.08;;;18.80;99.90;;;;;;5087366;28;20919;-74
2023/06/18 06:53:26;;;;;;;22.00;19.00;;;18.90;99.90;;;;;;5087629;28;20413;-74
2023/06/18 06:55:52;;;;;;;20.23;17.93;;;18.90;99.90;;;;;;5086433;28;20402;-74
2023/06/18 06:58:18;;;;;;;19.50;16.95;;;18.90;99.90;;;;;;5086367;28;20499;-74
2023/06/18 07:00:43;;;;;;;21.17;17.60;;;19.00;99.90;;;;;;5087948;28;20516;-74
2023/06/18 07:03:09;;;;;;;19.58;16.35;;;19.10;99.90;;;;;;5089927;28;20406;-73
2023/06/18 07:05:35;;;;;;;18.37;16.37;;;19.20;99.90;;;;;;5087359;28;21374;-73
2023/06/18 07:08:02;;;;;;;19.80;16.65;;;19.30;99.90;;;;;;5087930;28;20405;-73
2023/06/18 07:10:28;;;;;;;18.40;16.02;;;19.30;99.90;;;;;;5086523;28;20485;-74
2023/06/18 07:12:53;;;;;;;17.75;15.85;;;19.40;99.90;;;;;;5090712;28;20393;-74
2023/06/18 07:15:19;;;;;;;17.53;15.67;;;19.40;99.90;;;;;;5089069;28;20418;-74
2023/06/18 07:17:45;;;;;;;17.90;15.50;;;19.50;99.90;;;;;;5068218;28;20438;-74
2023/06/18 07:20:10;;;;;;;17.53;15.17;;;19.50;99.90;;;;;;5083972;28;20455;-74
2023/06/18 07:22:36;;;;;;;18.75;15.35;;;19.60;99.90;;;;;;5077034;28;20427;-74
2023/06/18 07:25:03;;;;;;;17.73;15.40;;;19.50;99.90;;;;;;5078872;28;20439;-74
2023/06/18 07:27:28;;;;;;;17.38;15.07;;;19.60;99.90;;;;;;5084982;28;20410;-73
2023/06/18 07:29:55;;;;;;;17.50;15.15;;;19.60;99.90;;;;;;5073669;28;20398;-73
2023/06/18 07:32:21;;;;;;;18.05;15.32;;;19.60;99.90;;;;;;5077717;28;20442;-74
2023/06/18 07:34:46;;;;;;;15.25;13.63;;;19.70;99.90;;;;;;5078247;28;21100;-74
2023/06/18 07:37:12;;;;;;;16.27;14.57;;;19.80;99.90;;;;;;5084307;28;20501;-74
2023/06/18 07:39:38;;;;;;;15.33;13.60;;;19.90;99.90;;;;;;5078475;28;20446;-74
2023/06/18 07:42:03;;;;;;;15.23;13.05;;;19.90;99.90;;;;;;5080171;28;20400;-74
2023/06/18 07:44:29;;;;;;;14.97;13.03;;;20.00;99.90;;;;;;5074193;28;20431;-74
2023/06/18 07:46:55;;;;;;;13.63;12.07;;;20.10;99.90;;;;;;5080055;28;20413;-74
2023/06/18 07:49:24;;;;;;;15.20;12.43;;;20.20;99.90;;;;;;5079857;28;20402;-75
2023/06/18 07:51:50;;;;;;;16.10;13.30;;;20.40;99.90;;;;;;5094473;28;20434;-74
2023/06/18 07:54:15;;;;;;;13.60;11.70;;;20.50;99.90;;;;;;5089122;28;20385;-74
2023/06/18 07:56:41;;;;;;;14.00;12.07;;;20.60;99.90;;;;;;5080510;28;20388;-74
2023/06/18 07:59:07;;;;;;;15.10;13.17;;;20.70;99.90;;;;;;5069026;28;20498;-74
2023/06/18 08:01:33;;;;;;;14.82;12.93;;;20.80;99.90;;;;;;5080807;28;20907;-74
2023/06/18 08:03:59;;;;;;;15.02;13.07;;;20.90;99.90;;;;;;5089214;28;20410;-74
2023/06/18 08:06:25;;;;;;;14.43;12.90;;;20.90;99.90;;;;;;5090239;28;20434;-74
2023/06/18 08:08:50;;;;;;;14.45;12.90;;;21.00;99.90;;;;;;5091366;28;20436;-74
2023/06/18 08:11:17;;;;;;;16.53;14.17;;;21.10;99.90;;;;;;5089421;28;20406;-75
2023/06/18 08:13:43;;;;;;;14.88;13.27;;;21.20;99.90;;;;;;5090668;28;20399;-74
2023/06/18 08:16:09;;;;;;;15.85;14.13;;;21.40;99.90;;;;;;5089510;28;20412;-75
2023/06/18 08:18:35;;;;;;;16.53;13.97;;;21.50;99.90;;;;;;5090839;28;20401;-74
2023/06/18 08:21:01;;;;;;;15.57;13.40;;;21.70;99.90;;;;;;5082362;28;20444;-74
2023/06/18 08:23:27;;;;;;;14.98;13.32;;;21.70;99.90;;;;;;5091515;28;20406;-75
2023/06/18 08:25:52;;;;;;;15.15;13.02;;;21.80;99.90;;;;;;5074526;28;20430;-75
2023/06/18 08:28:18;;;;;;;17.60;14.57;;;21.90;99.90;;;;;;5091744;28;20410;-75
2023/06/18 08:30:43;;;;;;;16.73;14.93;;;21.90;99.90;;;;;;5094717;28;20400;-75
2023/06/18 08:33:10;;;;;;;17.27;15.00;;;21.90;99.90;;;;;;5091318;28;20409;-74
2023/06/18 08:35:37;;;;;;;16.88;14.82;;;21.90;99.90;;;;;;5094016;28;20847;-75
2023/06/18 08:38:03;;;;;;;18.70;16.00;;;21.90;99.90;;;;;;5088607;28;20418;-75
2023/06/18 08:40:35;;;;;;;18.65;15.90;;;21.90;99.90;;;;;;5087994;28;20405;-75
2023/06/18 08:43:01;;;;;;;17.75;15.60;;;22.00;99.90;;;;;;5088330;28;20445;-75
2023/06/18 08:45:27;;;;;;;17.95;15.20;;;22.00;99.90;;;;;;5086243;28;20483;-74
2023/06/18 08:47:58;;;;;;;17.45;15.27;;;22.10;99.90;;;;;;5088103;28;20398;-75
2023/06/18 08:50:27;;;;;;;16.25;14.50;;;22.20;99.90;;;;;;5086823;28;20447;-75
2023/06/18 08:52:58;;;;;;;15.80;13.52;;;22.30;99.90;;;;;;5087935;28;20956;-75
2023/06/18 08:55:25;;;;;;;16.40;14.60;;;22.40;99.90;;;;;;5076017;28;20410;-74
2023/06/18 08:58:00;;;;;;;16.98;13.98;;;22.60;99.90;;;;;;5085934;28;20408;-74
2023/06/18 09:00:27;;;;;;;17.80;14.38;;;22.70;99.90;;;;;;5089363;28;20956;-75
2023/06/18 09:02:53;;;;;;;15.98;13.70;;;22.70;99.90;;;;;;5087543;28;20406;-75
2023/06/18 09:05:19;;;;;;;17.55;15.10;;;22.80;99.90;;;;;;5086805;28;20426;-75
2023/06/18 09:07:46;;;;;;;17.17;15.13;;;23.00;99.90;;;;;;5088759;28;20406;-75
2023/06/18 09:10:14;;;;;;;15.95;13.68;;;23.10;99.90;;;;;;5088047;28;20498;-75
2023/06/18 09:12:40;;;;;;;15.60;13.43;;;23.20;99.90;;;;;;5103777;28;20415;-75
2023/06/18 09:15:06;;;;;;;15.02;13.15;;;23.30;99.90;;;;;;5098945;28;20956;-75
2023/06/18 09:17:33;;;;;;;15.80;12.45;;;23.50;99.90;;;;;;5086736;28;20931;-75
2023/06/18 09:19:59;;;;;;;14.30;12.37;;;23.70;99.90;;;;;;5089105;28;20402;-75
2023/06/18 09:22:25;;;;;;;14.87;12.80;;;23.80;99.90;;;;;;5087538;28;20446;-75
2023/06/18 09:24:58;;;;;;;15.02;13.23;;;24.00;99.90;;;;;;5070921;28;21026;-75
2023/06/18 09:27:33;;;;;;;16.25;13.50;;;24.20;99.90;;;;;;5087199;28;20410;-75
2023/06/18 09:29:59;;;;;;;15.23;13.05;;;24.50;99.90;;;;;;5087342;28;20402;-75
2023/06/18 09:32:25;;;;;;;14.37;12.10;;;24.70;99.90;;;;;;5087404;28;20477;-75
2023/06/18 09:34:50;;;;;;;12.88;11.23;;;24.90;99.90;;;;;;5088827;28;20413;-75
2023/06/18 09:37:16;;;;;;;14.88;12.07;;;25.10;99.90;;;;;;5087510;28;21404;-75
2023/06/18 09:39:42;;;;;;;14.77;12.50;;;25.40;99.90;;;;;;5079978;28;20477;-70
2023/06/18 09:42:11;;;;;;;14.35;11.30;;;25.70;99.90;;;;;;5090316;28;20409;-70
2023/06/18 09:44:37;;;;;;;12.73;10.75;;;26.10;99.90;;;;;;5088719;28;20425;-70
2023/06/18 09:47:10;;;;;;;12.98;10.95;;;26.20;99.90;;;;;;5089340;28;20405;-75
2023/06/18 09:49:36;;;;;;;12.18;9.18;;;26.20;99.90;;;;;;5086908;28;20405;-75
2023/06/18 09:52:05;;;;;;;13.57;10.52;;;26.30;99.90;;;;;;5087981;28;20505;-75
2023/06/18 09:54:41;;;;;;;11.65;9.35;;;26.20;99.70;;;;;;5087683;28;20395;-75
2023/06/18 09:57:08;;;;;;;12.57;9.20;;;26.10;99.80;;;;;;5085800;28;20422;-75
2023/06/18 09:59:34;;;;;;;13.40;10.70;;;26.30;99.90;;;;;;5090217;28;20737;-75
2023/06/18 10:01:59;;;;;;;;;;;26.60;99.50;;;;;;5090319;28;20062;-74
2023/06/18 10:04:25;;;;;;;;;;;26.90;99.40;;;;;;5090505;28;19931;-74
2023/06/18 10:06:58;;;;;;;12.00;9.70;;;27.20;98.80;;;;;;5089100;28;19981;-75
2023/06/18 10:09:37;;;;;;;;;;;27.60;98.50;;;;;;5087834;28;20050;-75
2023/06/18 10:12:04;;;;;;;12.40;9.00;;;27.90;98.00;;;;;;5087727;28;19934;-72
2023/06/18 10:14:31;;;;;;;12.15;9.85;;;28.40;97.30;;;;;;5087829;28;20824;-74
2023/06/18 10:17:09;;;;;;;10.07;8.70;;;28.60;96.40;;;;;;5107826;28;20396;-74
2023/06/18 10:19:46;;;;;;;;;;;28.70;96.50;;;;;;5088382;28;20036;-74
2023/06/18 10:22:14;;;;;;;10.25;7.45;;;28.80;95.40;;;;;;5089492;28;20351;-75
2023/06/18 10:25:05;;;;;;;8.63;7.70;;;29.10;94.80;;;;;;5088532;28;20681;-75
2023/06/18 10:27:31;;;;;;;10.65;7.43;;;29.20;94.60;;;;;;5088442;28;20040;-74
2023/06/18 10:29:57;;;;;;;;;;;29.40;94.50;;;;;;5087984;28;20040;-75
2023/06/18 10:32:23;;;;;;;;;;;29.60;93.30;;;;;;5090923;28;20355;-75
2023/06/18 10:34:49;;;;;;;;;;;29.70;92.30;;;;;;5089068;28;19932;-75
2023/06/18 10:37:15;;;;;;;;;;;29.80;92.10;;;;;;5090157;28;19927;-75
2023/06/18 10:39:41;;;;;;;;;;;29.80;92.00;;;;;;5088769;28;19928;-74
2023/06/18 10:42:12;;;;;;;9.23;6.10;;;29.90;91.50;;;;;;5088914;28;20401;-74
2023/06/18 10:44:54;;;;;;;7.70;6.18;;;29.90;91.10;;;;;;5088049;28;20483;-74
2023/06/18 10:47:24;;;;;;;7.20;5.90;;;29.90;90.70;;;;;;5086327;28;20414;-74
2023/06/18 10:50:02;;;;;;;9.20;6.00;;;30.00;90.20;;;;;;5086097;28;20455;-75
2023/06/18 10:52:31;;;;;;;8.50;6.30;;;30.20;89.30;;;;;;5086232;28;20414;-75
2023/06/18 10:55:22;;;;;;;7.75;6.45;;;30.50;89.20;;;;;;5070247;28;20040;-75
2023/06/18 10:57:50;;;;;;;10.15;6.80;;;30.50;86.40;;;;;;5087426;28;20402;-75
2023/06/18 11:00:21;;;;;;;10.27;6.93;;;30.60;86.70;;;;;;5083958;28;20410;-74
2023/06/18 11:02:51;;;;;;;9.02;6.38;;;30.70;87.50;;;;;;5087776;28;20585;-74
2023/06/18 11:05:32;;;;;;;9.20;6.50;;;30.90;87.00;;;;;;5087551;28;20426;-74
2023/06/18 11:08:03;;;;;;;8.43;6.20;;;31.00;84.20;;;;;;5089199;28;20463;-74
2023/06/18 11:10:37;;;;;;;8.43;6.32;;;31.00;83.90;;;;;;5090697;28;20418;-74
2023/06/18 11:13:04;;;;;;;9.65;6.00;;;31.10;82.20;;;;;;5108401;28;20419;-74
2023/06/18 11:15:30;;;;;;;7.85;5.88;;;31.20;81.80;;;;;;5098834;28;20398;-75
2023/06/18 11:18:00;;;;;;;8.27;6.32;;;31.40;82.70;;;;;;5091257;28;20400;-75
2023/06/18 11:20:27;;;;;;;7.70;5.72;;;31.60;82.30;;;;;;5090119;28;20797;-74
2023/06/18 11:22:56;;;;;;;;;;;31.80;81.20;;;;;;5092986;28;20043;-74
2023/06/18 11:25:24;;;;;;;9.73;5.72;;;31.90;79.70;;;;;;5092493;28;19960;-75
2023/06/18 11:27:51;;;;;;;7.32;5.82;;;32.00;78.30;;;;;;5090421;28;20402;-75
2023/06/18 11:30:18;;;;;;;7.13;5.60;;;32.00;78.20;;;;;;5089771;28;20398;-74
2023/06/18 11:32:44;;;;;;;8.57;6.20;;;31.90;78.80;;;;;;5091232;28;20401;-74
2023/06/18 11:35:11;;;;;;;8.63;6.10;;;31.80;77.00;;;;;;5091150;28;20413;-75
2023/06/18 11:37:42;;;;;;;8.60;5.90;;;31.70;78.00;;;;;;5090803;28;20406;-74
2023/06/18 11:40:09;;;;;;;6.82;5.30;;;31.80;78.00;;;;;;5089878;28;20418;-74
2023/06/18 11:42:36;;;;;;;7.65;5.55;;;31.90;76.90;;;;;;5089843;28;20887;-75
2023/06/18 11:45:03;;;;;;;;;;;32.00;77.00;;;;;;5090815;28;20394;-74
2023/06/18 11:47:29;;;;;;;;;;;32.20;75.70;;;;;;5092426;28;19963;-74
2023/06/18 11:49:55;;;;;;;6.10;5.03;;;32.40;75.10;;;;;;5090540;28;19920;-74
2023/06/18 11:52:23;;;;;;;7.93;5.57;;;32.20;74.20;;;;;;5072433;28;20408;-74
2023/06/18 11:54:49;;;;;;;8.18;5.38;;;32.00;73.60;;;;;;5088804;28;20402;-74
2023/06/18 11:57:19;;;;;;;7.45;5.35;;;31.90;73.70;;;;;;5075095;28;20406;-74
2023/06/18 11:59:46;;;;;;;7.22;5.38;;;31.80;73.40;;;;;;5094680;28;20411;-74
2023/06/18 12:02:16;;;;;;;8.02;5.32;;;31.60;72.90;;;;;;5089556;28;20410;-74
2023/06/18 12:04:43;;;;;;;6.43;5.50;;;31.40;71.60;;;;;;5091717;28;20447;-74
2023/06/18 12:07:14;;;;;;;7.67;5.60;;;31.10;70.80;;;;;;5090488;28;20398;-74
2023/06/18 12:09:40;;;;;;;7.65;4.97;;;31.00;70.60;;;;;;5088213;28;20396;-74
2023/06/18 12:12:16;;;;;;;7.00;5.10;;;30.80;70.90;;;;;;5076357;28;20484;-74
2023/06/18 12:14:42;;;;;;;8.20;5.15;;;30.60;71.60;;;;;;5088291;28;20471;-74
2023/06/18 12:17:31;;;;;;;7.90;4.83;;;30.60;71.00;;;;;;5089160;28;20414;-74
2023/06/18 12:20:08;;;;;;;7.40;5.20;;;30.50;70.90;;;;;;5076047;28;20462;-74
2023/06/18 12:22:34;;;;;;;6.38;5.35;;;30.50;70.90;;;;;;5087920;28;20430;-74
2023/06/18 12:25:00;;;;;;;5.90;4.87;;;30.70;71.20;;;;;;5089474;28;20946;-74
2023/06/18 12:27:26;;;;;;;5.97;4.80;;;31.00;71.30;;;;;;5090912;28;20414;-74
2023/06/18 12:29:57;;;;;;;8.73;5.20;;;31.30;70.50;;;;;;5089483;28;20421;-74
2023/06/18 12:32:23;;;;;;;6.60;4.22;;;31.60;69.30;;;;;;5090424;28;20097;-74
2023/06/18 12:34:48;;;;;;;7.32;5.07;;;31.60;68.70;;;;;;5090740;28;20043;-74